MS62 weather

Davis Field
Olive Branch, Mississippi, United States

Public forecast

Using degrees Fahrenheit for public forecast. Weather courtesy of forecast.io.

Closest aviation weather report (METAR) to Davis Field

Closest report is Olive Branch Airport, 1.6 nm (3.0 km) ESE. Retrieved 2020/02/22 05:15 UTC (10 minutes ago):

KOLV 220515Z AUTO 00000KT 10SM CLR M02/M04 A3051 RMK A01

Closest aviation forecast (TAF) to Davis Field

Closest forecast is Memphis International Airport, 8.5 nm (15.7 km) WNW. Retrieved 2020-02-22 00:24 UTC (5 hours ago):

TAF KMEM 212323Z 2200/2306 34006KT P6SM SKC FM220100 VRB02KT P6SM SKC FM221600 20007KT P6SM FEW250 FM230000 18003KT P6SM SCT250